Time;durP1;ratioP1;P1;durP2;ratioP2;P2;SDS_P1;SDS_P2;PMS_P1;PMS_P2;Temp;Humidity;BMP_temperature;BMP_pressure;BME280_temperature;BME280_humidity;BME280_pressure;Samples;Min_cycle;Max_cycle;Signal;HPM_P1;HPM_P2
2024/02/12 00:00:11;;;;;;;27.50;15.20;;;;;;;9.84;100.00;98416.39;104622;1253;72475;-65
2024/02/12 00:03:24;;;;;;;28.60;15.20;;;;;;;9.88;100.00;98412.26;105312;1254;60883;-65
2024/02/12 00:06:43;;;;;;;26.10;15.50;;;;;;;9.88;100.00;98410.15;105459;1250;59905;-66
2024/02/12 00:10:05;;;;;;;31.00;15.70;;;;;;;9.87;100.00;98419.16;104965;1251;73098;-66
2024/02/12 00:13:19;;;;;;;25.90;16.60;;;;;;;9.18;100.00;98424.19;105374;1251;70061;-66
2024/02/12 00:16:37;;;;;;;24.00;15.80;;;;;;;9.07;100.00;98424.96;104565;1267;73377;-66
2024/02/12 00:19:51;;;;;;;27.40;15.10;;;;;;;8.97;100.00;98427.80;104924;1266;59767;-65
2024/02/12 00:23:09;;;;;;;20.10;15.20;;;;;;;8.99;100.00;98426.48;104984;1254;59713;-68
2024/02/12 00:26:27;;;;;;;20.00;14.90;;;;;;;8.97;100.00;98419.95;104887;1251;72763;-67
2024/02/12 00:29:46;;;;;;;26.60;15.80;;;;;;;8.93;100.00;98422.79;105013;1256;70230;-67
2024/02/12 00:33:06;;;;;;;25.30;15.70;;;;;;;8.89;100.00;98418.63;104756;1251;71669;-67
2024/02/12 00:36:24;;;;;;;20.80;15.20;;;;;;;8.87;100.00;98412.80;107071;1250;61045;-68
2024/02/12 00:39:42;;;;;;;22.90;15.50;;;;;;;8.87;100.00;98408.98;105025;1250;60103;-66
2024/02/12 00:43:00;;;;;;;18.80;14.80;;;;;;;8.92;100.00;98401.16;104558;1256;73649;-67
2024/02/12 00:46:18;;;;;;;18.30;15.10;;;;;;;8.85;100.00;98397.70;105189;1249;69934;-67
2024/02/12 00:49:28;;;;;;;18.50;14.40;;;;;;;8.91;100.00;98397.91;104542;1267;73060;-68
2024/02/12 00:52:39;;;;;;;28.90;16.30;;;;;;;9.22;100.00;98401.58;104592;1260;60936;-67
2024/02/12 00:55:57;;;;;;;24.30;15.20;;;;;;;9.24;100.00;98387.32;106700;1250;61339;-67
2024/02/12 00:59:15;;;;;;;27.30;15.70;;;;;;;9.18;100.00;98383.64;105608;1251;71849;-66
2024/02/12 01:02:33;;;;;;;22.90;15.80;;;;;;;9.24;100.00;98373.13;105613;1251;70035;-67
2024/02/12 01:05:52;;;;;;;21.20;15.50;;;;;;;9.27;100.00;98367.05;105461;1251;72410;-67
2024/02/12 01:09:11;;;;;;;39.60;16.10;;;;;;;9.39;100.00;98374.77;104677;1270;60953;-70
2024/02/12 01:12:27;;;;;;;33.70;16.70;;;;;;;9.31;100.00;98370.30;104991;1266;60175;-66
2024/02/12 01:15:49;;;;;;;27.40;17.90;;;;;;;9.15;100.00;98363.87;105558;1251;71594;-67
2024/02/12 01:19:04;;;;;;;23.80;15.60;;;;;;;9.17;100.00;98362.34;104850;1251;70009;-67
2024/02/12 01:22:23;;;;;;;22.20;16.20;;;;;;;9.20;100.00;98363.42;105000;1250;72827;-65
2024/02/12 01:24:58;;;;;;;23.20;15.20;;;;;;;9.22;100.00;98372.75;104393;1251;60591;-67
2024/02/12 01:28:09;;;;;;;24.10;15.40;;;;;;;9.16;100.00;98379.55;104978;1251;59855;-67
2024/02/12 01:31:28;;;;;;;38.20;16.60;;;;;;;9.23;100.00;98385.11;104819;1250;72544;-66
2024/02/12 01:34:45;;;;;;;22.70;15.60;;;;;;;9.58;100.00;98390.04;104601;1253;69254;-65
2024/02/12 01:38:08;;;;;;;19.40;15.30;;;;;;;9.84;100.00;98385.93;104844;1251;73265;-67
2024/02/12 01:41:21;;;;;;;22.20;14.70;;;;;;;9.80;100.00;98384.59;104643;1256;60610;-67
2024/02/12 01:44:40;;;;;;;48.00;17.20;;;;;;;9.90;100.00;98384.66;104921;1253;59835;-67
2024/02/12 01:47:15;;;;;;;22.90;15.20;;;;;;;9.82;100.00;98378.69;104735;1253;73595;-67
2024/02/12 01:50:35;;;;;;;28.10;14.80;;;;;;;9.84;100.00;98376.80;105037;1251;69405;-67
2024/02/12 01:53:53;;;;;;;25.10;14.50;;;;;;;9.90;100.00;98364.73;105107;1251;72821;-63
2024/02/12 01:57:11;;;;;;;32.70;15.90;;;;;;;9.98;100.00;98368.96;105263;1250;60855;-67
2024/02/12 02:00:30;;;;;;;28.90;15.30;;;;;;;9.99;100.00;98372.55;104613;1250;60140;-67
2024/02/12 02:03:51;;;;;;;24.40;15.00;;;;;;;9.99;100.00;98373.99;104647;1254;72258;-66
2024/02/12 02:07:09;;;;;;;21.60;15.50;;;;;;;9.99;100.00;98372.09;105515;1253;68439;-70
2024/02/12 02:10:29;;;;;;;32.30;15.00;;;;;;;10.00;100.00;98366.37;104748;1266;73328;-67
2024/02/12 02:13:25;;;;;;;;;;;;;;;10.04;100.00;98359.30;105248;1251;60704;-67
2024/02/12 02:16:44;;;;;;;19.20;14.60;;;;;;;9.89;100.00;98358.09;104446;1251;59714;-66
2024/02/12 02:20:01;;;;;;;27.80;14.80;;;;;;;9.93;100.00;98349.15;104787;1250;72798;-67
2024/02/12 02:23:20;;;;;;;21.10;15.10;;;;;;;9.93;100.00;98356.82;105181;1250;68022;-67
2024/02/12 02:26:38;;;;;;;24.80;14.30;;;;;;;9.90;100.00;98361.77;104326;1264;72881;-66
2024/02/12 02:29:12;;;;;;;34.00;16.10;;;;;;;9.94;100.00;98366.54;105211;1251;59717;-66
2024/02/12 02:32:26;;;;;;;32.80;15.80;;;;;;;10.00;100.00;98368.52;104959;1251;59762;-64
2024/02/12 02:35:44;;;;;;;38.20;15.50;;;;;;;10.05;100.00;98370.13;104534;1256;73466;-66
2024/02/12 02:39:03;;;;;;;42.10;16.00;;;;;;;10.03;100.00;98366.05;104473;1251;69305;-65
2024/02/12 02:42:14;;;;;;;23.80;14.80;;;;;;;9.98;100.00;98370.02;105485;1251;72437;-65
2024/02/12 02:45:21;;;;;;;36.60;15.30;;;;;;;9.99;100.00;98372.92;105646;1253;60918;-64
2024/02/12 02:48:35;;;;;;;30.10;15.90;;;;;;;9.95;100.00;98378.41;106087;1250;60353;-67
2024/02/12 02:51:52;;;;;;;23.30;15.00;;;;;;;9.95;100.00;98378.77;104904;1253;72259;-66
2024/02/12 02:55:11;;;;;;;23.70;15.30;;;;;;;9.94;100.00;98379.15;104826;1251;68434;-66
2024/02/12 02:57:44;;;;;;;36.50;16.40;;;;;;;10.00;100.00;98370.95;104821;1256;73365;-65
2024/02/12 03:00:53;;;;;;;23.70;14.40;;;;;;;9.95;100.00;98371.80;105164;1251;60663;-65
2024/02/12 03:04:07;;;;;;;37.50;17.10;;;;;;;9.88;100.00;98378.50;105114;1251;60332;-66
2024/02/12 03:07:25;;;;;;;41.80;15.90;;;;;;;9.80;100.00;98370.05;104788;1253;71770;-66
2024/02/12 03:10:43;;;;;;;33.10;16.70;;;;;;;9.79;100.00;98375.36;104884;1256;69279;-66
2024/02/12 03:14:01;;;;;;;36.90;15.50;;;;;;;9.77;100.00;98367.77;106022;1250;73286;-67
2024/02/12 03:17:20;;;;;;;32.30;15.70;;;;;;;9.83;100.00;98356.73;105022;1253;60717;-66
2024/02/12 03:20:17;;;;;;;44.80;15.00;;;;;;;9.89;100.00;98352.34;104867;1254;60260;-66
2024/02/12 03:23:30;;;;;;;26.10;14.30;;;;;;;9.90;100.00;98358.05;105558;1250;74014;-65
2024/02/12 03:26:50;;;;;;;22.00;13.60;;;;;;;9.96;100.00;98364.00;105264;1251;69300;-67
2024/02/12 03:30:10;;;;;;;33.40;14.90;;;;;;;9.93;100.00;98362.43;105347;1257;71505;-66
2024/02/12 03:33:28;;;;;;;19.90;15.10;;;;;;;10.03;100.00;98365.69;104850;1251;61108;-65
2024/02/12 03:36:46;;;;;;;21.40;14.80;;;;;;;10.02;100.00;98354.36;105453;1250;59918;-66
2024/02/12 03:40:09;;;;;;;20.50;14.40;;;;;;;10.06;100.00;98362.71;104475;1256;73309;-64
2024/02/12 03:43:23;;;;;;;25.00;14.00;;;;;;;10.07;100.00;98364.77;105300;1250;72157;-65
2024/02/12 03:46:45;;;;;;;31.90;14.20;;;;;;;10.06;100.00;98369.32;105125;1251;71500;-66
2024/02/12 04:00:11;;;;;;;18.70;14.50;;;;;;;9.89;100.00;98348.14;105684;1251;69931;-66
2024/02/12 04:03:26;;;;;;;21.80;14.20;;;;;;;9.93;100.00;98349.99;104980;1254;72653;-66
2024/02/12 04:06:44;;;;;;;17.10;14.30;;;;;;;9.98;100.00;98351.80;105011;1265;60514;-66
2024/02/12 04:10:02;;;;;;;21.70;15.00;;;;;;;10.01;100.00;98342.02;105433;1251;60469;-66
2024/02/12 04:13:21;;;;;;;24.70;15.40;;;;;;;9.95;100.00;98344.81;105212;1254;73883;-66
2024/02/12 04:16:41;;;;;;;19.80;15.20;;;;;;;9.98;100.00;98349.52;104642;1254;70080;-65
2024/02/12 04:19:59;;;;;;;20.10;14.60;;;;;;;9.72;100.00;98357.20;105072;1253;73075;-61
2024/02/12 04:23:16;;;;;;;19.80;15.60;;;;;;;10.11;100.00;98349.59;104863;1265;60548;-68
2024/02/12 04:26:37;;;;;;;34.00;15.10;;;;;;;10.17;100.00;98349.59;105515;1254;60442;-67
2024/02/12 04:29:53;;;;;;;31.40;15.30;;;;;;;9.48;100.00;98342.21;105529;1250;74532;-68
2024/02/12 04:33:11;;;;;;;21.80;13.40;;;;;;;9.45;100.00;98354.40;106248;1252;68488;-68
2024/02/12 04:36:31;;;;;;;19.30;14.50;;;;;;;9.35;100.00;98355.05;104791;1255;72899;-68
2024/02/12 04:39:27;;;;;;;;;;;;;;;9.32;100.00;98351.20;104830;1269;61026;-67
2024/02/12 04:42:51;;;;;;;21.40;13.00;;;;;;;9.77;100.00;98344.85;104550;1250;59900;-69
2024/02/12 04:46:10;;;;;;;20.00;14.00;;;;;;;9.79;100.00;98348.06;105717;1250;74504;-68
2024/02/12 04:49:28;;;;;;;17.30;12.70;;;;;;;9.87;100.00;98352.45;104492;1254;68969;-68
2024/02/12 04:52:05;;;;;;;18.40;12.90;;;;;;;10.01;100.00;98353.91;104944;1250;71397;-66
2024/02/12 04:55:17;;;;;;;18.40;13.50;;;;;;;10.03;100.00;98347.14;105007;1251;61803;-67
2024/02/12 04:58:32;;;;;;;19.80;13.60;;;;;;;10.10;100.00;98341.23;104700;1250;60931;-67
2024/02/12 05:01:36;;;;;;;16.80;13.10;;;;;;;10.15;100.00;98340.59;105361;1250;73607;-64
2024/02/12 05:04:49;;;;;;;16.40;13.40;;;;;;;10.23;100.00;98345.19;104990;1250;69782;-67
2024/02/12 05:07:39;;;;;;;16.10;13.10;;;;;;;10.29;100.00;98358.48;105110;1250;73443;-66
2024/02/12 05:10:22;;;;;;;21.90;13.20;;;;;;;10.33;100.00;98362.64;104533;1251;60528;-67
2024/02/12 05:13:34;;;;;;;21.60;14.40;;;;;;;10.40;100.00;98357.66;104546;1268;60019;-67
2024/02/12 05:16:59;;;;;;;21.60;15.90;;;;;;;10.48;100.00;98361.00;104690;1254;73817;-66
2024/02/12 05:23:43;;;;;;;18.00;15.40;;;;;;;10.26;100.00;98352.91;104707;1250;73522;-65
2024/02/12 05:27:01;;;;;;;23.20;16.20;;;;;;;10.36;100.00;98378.27;105086;1252;61617;-67
2024/02/12 05:30:19;;;;;;;16.80;14.50;;;;;;;10.40;100.00;98385.17;104473;1251;60765;-67
2024/02/12 05:33:21;;;;;;;18.20;14.10;;;;;;;10.41;100.00;98385.62;105382;1250;72310;-66
2024/02/12 05:36:34;;;;;;;18.00;15.30;;;;;;;10.51;100.00;98389.92;105216;1253;69324;-67
2024/02/12 05:39:52;;;;;;;16.80;14.00;;;;;;;10.50;100.00;98402.56;105115;1249;72799;-66
2024/02/12 05:43:05;;;;;;;17.30;13.70;;;;;;;10.47;100.00;98400.67;105319;1250;61775;-67
2024/02/12 05:46:18;;;;;;;17.80;14.00;;;;;;;10.48;100.00;98396.23;104583;1251;60454;-67
2024/02/12 05:48:51;;;;;;;17.10;13.50;;;;;;;10.62;100.00;98397.98;105065;1251;74231;-67
2024/02/12 05:52:03;;;;;;;27.20;13.80;;;;;;;10.61;100.00;98390.53;105995;1251;68497;-67
2024/02/12 05:55:22;;;;;;;18.50;13.40;;;;;;;10.58;100.00;98384.41;104995;1250;72765;-65
2024/02/12 05:58:41;;;;;;;18.40;14.30;;;;;;;10.58;100.00;98382.16;104407;1253;61171;-65
2024/02/12 06:02:00;;;;;;;19.50;13.90;;;;;;;10.55;100.00;98378.78;104559;1252;60454;-66
2024/02/12 06:05:19;;;;;;;20.70;13.80;;;;;;;10.58;100.00;98375.95;105877;1252;74167;-66
2024/02/12 06:08:38;;;;;;;23.60;13.30;;;;;;;10.53;100.00;98376.66;105054;1254;70426;-64
2024/02/12 06:11:56;;;;;;;21.60;14.10;;;;;;;10.50;100.00;98375.10;104418;1269;73500;-62
2024/02/12 06:15:14;;;;;;;20.00;14.30;;;;;;;10.60;100.00;98376.94;104299;1251;60570;-62
2024/02/12 06:17:52;;;;;;;19.50;13.90;;;;;;;10.73;100.00;98376.26;104663;1254;60455;-62
2024/02/12 06:20:22;;;;;;;18.30;14.40;;;;;;;10.58;100.00;98369.35;106063;1251;74060;-61
2024/02/12 06:23:27;;;;;;;17.00;14.70;;;;;;;10.48;100.00;98369.27;105423;1251;70270;-63
2024/02/12 06:26:38;;;;;;;18.80;15.30;;;;;;;10.63;100.00;98369.85;105558;1251;72643;-62
2024/02/12 06:29:57;;;;;;;18.90;15.80;;;;;;;10.58;100.00;98369.89;105867;1253;61168;-62
2024/02/12 06:33:16;;;;;;;23.30;14.20;;;;;;;10.60;100.00;98375.20;104761;1252;60486;-62
2024/02/12 06:36:34;;;;;;;20.50;13.80;;;;;;;10.67;100.00;98376.79;104629;1251;74124;-62
2024/02/12 06:39:52;;;;;;;23.30;14.60;;;;;;;10.72;100.00;98377.05;105610;1252;69580;-61
2024/02/12 06:42:26;;;;;;;17.00;14.20;;;;;;;10.75;100.00;98379.14;105469;1251;72526;-62
2024/02/12 06:45:21;;;;;;;18.80;14.50;;;;;;;10.69;100.00;98382.84;105994;1250;60915;-62
2024/02/12 06:48:33;;;;;;;18.10;14.10;;;;;;;10.75;100.00;98380.68;105555;1252;60519;-60
2024/02/12 06:51:52;;;;;;;24.10;14.40;;;;;;;10.78;100.00;98381.94;104534;1256;73685;-59
2024/02/12 06:55:04;;;;;;;16.60;14.30;;;;;;;10.83;100.00;98386.68;104821;1256;70803;-60
2024/02/12 06:58:32;;;;;;;27.30;14.50;;;;;;;10.82;100.00;98389.20;104657;1253;73880;-60
2024/02/12 07:01:50;;;;;;;17.90;14.00;;;;;;;10.83;100.00;98387.88;105082;1252;61216;-59
2024/02/12 07:05:08;;;;;;;17.90;14.00;;;;;;;10.92;100.00;98378.05;105730;1257;60533;-61
2024/02/12 07:08:26;;;;;;;24.10;13.90;;;;;;;10.88;100.00;98379.68;105375;1253;74189;-61
2024/02/12 07:11:44;;;;;;;26.90;14.10;;;;;;;10.86;100.00;98380.36;105213;1253;69624;-60
2024/02/12 07:15:03;;;;;;;29.90;14.80;;;;;;;10.90;100.00;98381.86;105148;1251;73083;-60
2024/02/12 07:18:03;;;;;;;41.50;15.30;;;;;;;10.82;100.00;98388.50;104893;1252;61086;-60
2024/02/12 07:21:16;;;;;;;18.40;14.70;;;;;;;10.79;100.00;98389.53;104517;1251;60550;-61
2024/02/12 07:24:36;;;;;;;19.80;14.70;;;;;;;10.82;100.00;98391.11;105406;1253;74539;-61
2024/02/12 07:27:48;;;;;;;33.30;16.20;;;;;;;10.76;100.00;98394.64;105358;1256;69753;-65
2024/02/12 07:31:07;;;;;;;20.10;14.30;;;;;;;10.68;100.00;98396.04;105279;1253;72454;-63
2024/02/12 07:34:25;;;;;;;20.90;13.40;;;;;;;10.78;100.00;98388.75;105721;1251;61034;-66
2024/02/12 07:37:44;;;;;;;25.20;13.60;;;;;;;10.94;100.00;98388.58;105705;1253;60448;-65
2024/02/12 07:41:05;;;;;;;24.60;12.30;;;;;;;11.04;100.00;98386.21;105889;1251;74472;-66
2024/02/12 07:44:23;;;;;;;16.80;12.60;;;;;;;11.24;100.00;98379.84;106013;1251;68501;-66
2024/02/12 07:47:44;;;;;;;17.40;11.20;;;;;;;11.28;100.00;98374.45;105403;1252;72680;-63
2024/02/12 07:51:04;;;;;;;25.90;11.60;;;;;;;11.29;100.00;98373.70;106692;1251;60268;-60
2024/02/12 07:54:23;;;;;;;15.90;10.90;;;;;;;11.30;100.00;98373.83;105281;1254;60865;-61
2024/02/12 07:57:42;;;;;;;18.80;11.10;;;;;;;11.45;100.00;98378.98;105516;1251;73164;-61
2024/02/12 08:01:02;;;;;;;22.00;12.90;;;;;;;11.52;100.00;98374.47;105832;1251;70232;-63
2024/02/12 08:04:21;;;;;;;15.00;12.10;;;;;;;11.56;100.00;98373.50;104678;1254;72987;-62
2024/02/12 08:07:39;;;;;;;17.40;11.40;;;;;;;11.67;100.00;98369.95;105052;1252;61111;-61
2024/02/12 08:10:52;;;;;;;22.00;11.60;;;;;;;11.57;100.00;98377.09;105757;1251;60439;-62
2024/02/12 08:14:09;;;;;;;22.90;10.70;;;;;;;11.51;100.00;98377.85;105143;1253;73891;-62
2024/02/12 08:16:56;;;;;;;21.50;12.50;;;;;;;11.49;100.00;98380.80;104721;1255;69681;-61
2024/02/12 08:20:08;;;;;;;18.30;12.70;;;;;;;11.57;100.00;98382.37;105785;1252;72529;-62
2024/02/12 08:23:26;;;;;;;21.20;11.70;;;;;;;11.58;100.00;98384.98;105570;1257;60970;-61
2024/02/12 08:26:45;;;;;;;17.20;11.70;;;;;;;11.61;100.00;98385.64;105893;1251;60553;-60
2024/02/12 08:30:04;;;;;;;13.60;12.10;;;;;;;11.59;100.00;98387.20;106481;1253;73960;-61
2024/02/12 08:33:24;;;;;;;14.60;12.30;;;;;;;11.73;100.00;98392.55;106153;1256;70033;-60
2024/02/12 08:35:58;;;;;;;35.90;13.30;;;;;;;11.80;100.00;98392.45;105509;1253;72805;-61
2024/02/12 08:38:38;;;;;;;14.20;11.70;;;;;;;11.85;100.00;98397.58;105944;1257;60604;-60
2024/02/12 08:41:50;;;;;;;20.20;12.70;;;;;;;11.81;100.00;98398.16;105696;1251;61926;-60
2024/02/12 08:45:08;;;;;;;16.40;12.50;;;;;;;11.83;100.00;98399.61;105832;1250;74879;-61
2024/02/12 08:48:26;;;;;;;23.20;12.50;;;;;;;12.11;100.00;98393.38;105753;1251;69691;-62
2024/02/12 08:51:46;;;;;;;23.30;12.20;;;;;;;12.21;100.00;98390.57;106182;1256;72557;-62
2024/02/12 08:55:10;;;;;;;21.00;11.80;;;;;;;12.19;100.00;98389.08;106663;1251;61293;-61
2024/02/12 08:58:24;;;;;;;18.10;11.20;;;;;;;12.32;100.00;98388.77;105994;1256;60448;-61
2024/02/12 09:01:01;;;;;;;19.10;11.90;;;;;;;11.63;100.00;98391.48;105556;1253;74540;-61
2024/02/12 09:04:12;;;;;;;25.90;11.70;;;;;;;12.20;100.00;98394.48;106670;1251;70266;-62
2024/02/12 09:07:31;;;;;;;23.70;11.70;;;;;;;12.34;100.00;98392.64;105322;1256;72886;-60
2024/02/12 09:10:21;;;;;;;19.50;12.10;;;;;;;12.36;100.00;98393.54;105208;1251;61312;-61
2024/02/12 09:13:33;;;;;;;20.00;13.20;;;;;;;11.69;100.00;98396.67;107012;1255;60544;-60
2024/02/12 09:16:51;;;;;;;15.40;11.30;;;;;;;11.85;100.00;98408.63;106136;1253;74331;-60
2024/02/12 09:20:14;;;;;;;17.10;10.30;;;;;;;12.30;100.00;98398.72;106154;1251;69427;-64
2024/02/12 09:23:30;;;;;;;10.10;9.10;;;;;;;11.94;100.00;98401.88;104611;1256;72760;-62
2024/02/12 09:26:47;;;;;;;14.60;9.40;;;;;;;12.48;100.00;98401.48;105109;1253;60541;-61
2024/02/12 09:30:11;;;;;;;10.60;8.90;;;;;;;12.05;100.00;98404.62;104869;1256;60562;-62
2024/02/12 09:33:29;;;;;;;27.40;8.20;;;;;;;12.39;100.00;98398.74;106108;1251;74362;-63
2024/02/12 09:36:50;;;;;;;14.10;7.90;;;;;;;12.41;100.00;98395.46;106581;1254;70844;-61
2024/02/12 09:40:11;;;;;;;8.90;7.40;;;;;;;12.83;100.00;98393.73;105743;1256;72914;-61
2024/02/12 09:43:29;;;;;;;13.10;6.90;;;;;;;12.10;100.00;98393.77;106112;1251;61355;-62
2024/02/12 09:46:48;;;;;;;27.00;8.40;;;;;;;12.28;100.00;98397.45;105814;1253;60450;-59
2024/02/12 09:50:07;;;;;;;38.00;8.00;;;;;;;12.75;100.00;98390.27;106188;1251;74228;-61
2024/02/12 09:52:48;;;;;;;19.20;7.10;;;;;;;12.38;100.00;98389.88;105683;1253;69426;-60
2024/02/12 09:55:25;;;;;;;24.30;7.60;;;;;;;12.49;100.00;98385.95;105266;1256;72354;-60
2024/02/12 09:58:37;;;;;;;10.90;7.30;;;;;;;12.48;100.00;98393.91;106082;1251;61147;-61
2024/02/12 10:01:56;;;;;;;31.80;7.50;;;;;;;12.62;100.00;98379.95;105246;1252;60528;-60
2024/02/12 10:05:14;;;;;;;17.00;8.20;;;;;;;12.73;100.00;98382.01;106897;1254;73646;-60
2024/02/12 10:08:35;;;;;;;15.10;7.10;;;;;;;12.71;100.00;98380.38;106764;1256;69922;-60
2024/02/12 10:11:50;;;;;;;26.70;7.50;;;;;;;12.76;100.00;98377.54;105656;1256;73177;-61
2024/02/12 10:15:13;;;;;;;39.70;7.70;;;;;;;12.81;100.00;98382.81;106043;1251;61004;-62
2024/02/12 10:18:04;;;;;;;14.00;6.60;;;;;;;12.87;100.00;98375.15;106565;1252;61187;-59
2024/02/12 10:21:18;;;;;;;20.30;7.50;;;;;;;13.05;100.00;98372.98;106553;1251;74063;-60
2024/02/12 10:24:38;;;;;;;9.60;7.00;;;;;;;13.01;100.00;98372.24;106094;1253;70353;-60
2024/02/12 10:27:25;;;;;;;27.60;7.60;;;;;;;13.02;100.00;98371.73;105809;1250;72482;-61
2024/02/12 10:30:24;;;;;;;13.70;7.40;;;;;;;13.04;100.00;98369.14;106855;1254;61151;-59
2024/02/12 10:33:38;;;;;;;9.50;6.80;;;;;;;13.09;100.00;98363.38;104304;1272;60525;-60
2024/02/12 10:36:57;;;;;;;11.30;7.10;;;;;;;13.15;100.00;98360.32;106046;1256;73971;-60
2024/02/12 10:40:15;;;;;;;10.70;7.20;;;;;;;13.22;100.00;98355.86;105688;1251;68658;-61
2024/02/12 10:43:03;;;;;;;15.20;7.00;;;;;;;13.32;100.00;98349.71;105868;1256;72763;-60
2024/02/12 10:45:37;;;;;;;19.40;7.20;;;;;;;13.33;100.00;98351.06;105956;1254;61015;-60
2024/02/12 10:48:49;;;;;;;14.90;7.20;;;;;;;13.35;100.00;98349.82;105912;1256;60543;-60
2024/02/12 10:52:07;;;;;;;9.50;8.20;;;;;;;13.46;100.00;98353.44;105908;1256;73121;-60
2024/02/12 10:57:08;;;;;;;12.20;8.50;;;;;;;12.90;100.00;98351.73;102621;1282;603975;-60
2024/02/12 11:00:28;;;;;;;16.40;8.50;;;;;;;13.69;100.00;98347.33;104180;1266;61786;-60
2024/02/12 11:03:41;;;;;;;11.20;8.90;;;;;;;13.80;100.00;98345.38;104506;1257;59433;-61
2024/02/12 11:07:00;;;;;;;15.90;8.80;;;;;;;13.78;100.00;98335.86;105111;1257;71847;-61
2024/02/12 11:09:58;;;;;;;20.40;9.20;;;;;;;13.78;100.00;98338.56;103435;1254;2677036;-61
2024/02/12 11:13:10;;;;;;;9.80;8.20;;;;;;;13.90;100.00;98335.84;104803;1261;72458;-63
2024/02/12 11:16:31;;;;;;;12.60;8.70;;;;;;;13.88;100.00;98338.83;104320;1254;60557;-59
2024/02/12 11:19:49;;;;;;;10.30;8.70;;;;;;;13.85;100.00;98329.70;104633;1257;59848;-60
2024/02/12 11:23:08;;;;;;;11.50;9.40;;;;;;;13.80;100.00;98338.70;104644;1254;71929;-60
2024/02/12 11:25:45;;;;;;;17.90;9.80;;;;;;;13.95;100.00;98341.14;105044;1254;68320;-60
2024/02/12 11:29:00;;;;;;;27.00;10.60;;;;;;;13.93;100.00;98341.22;104344;1260;71364;-60
2024/02/12 11:32:17;;;;;;;10.50;9.40;;;;;;;13.79;100.00;98342.50;105041;1254;60103;-61
2024/02/12 11:35:27;;;;;;;14.80;10.40;;;;;;;13.85;100.00;98345.71;105311;1254;60012;-58
2024/02/12 11:38:46;;;;;;;35.30;11.40;;;;;;;13.88;100.00;98344.25;105328;1259;72220;-59
2024/02/12 11:42:05;;;;;;;21.20;10.50;;;;;;;13.80;100.00;98345.23;104954;1257;69671;-61
2024/02/12 11:45:22;;;;;;;22.80;11.10;;;;;;;13.78;100.00;98343.77;105163;1269;73468;-61
2024/02/12 11:48:35;;;;;;;27.50;10.60;;;;;;;13.81;100.00;98336.86;105600;1255;61623;-59
2024/02/12 11:51:55;;;;;;;40.30;11.40;;;;;;;13.84;100.00;98335.05;104391;1254;60048;-60
2024/02/12 11:54:42;;;;;;;16.20;11.30;;;;;;;13.90;100.00;98333.56;104886;1256;72851;-61
2024/02/12 11:57:11;;;;;;;40.90;12.40;;;;;;;13.92;100.00;98332.90;105831;1254;69780;-61
2024/02/12 12:00:24;;;;;;;23.90;11.90;;;;;;;13.94;100.00;98327.79;104812;1257;73225;-61
2024/02/12 12:03:37;;;;;;;19.10;11.10;;;;;;;13.98;100.00;98324.27;105037;1260;60819;-60
2024/02/12 12:06:57;;;;;;;19.80;10.60;;;;;;;14.10;100.00;98321.79;105866;1254;59864;-60
2024/02/12 12:10:16;;;;;;;24.90;11.00;;;;;;;14.20;100.00;98321.50;105061;1256;71663;-59
2024/02/12 12:13:35;;;;;;;18.20;11.60;;;;;;;14.19;100.00;98321.59;106353;1254;71720;-60
2024/02/12 12:16:54;;;;;;;21.30;11.40;;;;;;;14.25;100.00;98309.00;104728;1254;73197;-59
2024/02/12 12:20:34;;;;;;;13.80;11.80;;;;;;;14.25;100.00;98309.87;106076;1256;59732;-59
2024/02/12 12:23:53;;;;;;;13.20;12.00;;;;;;;14.27;100.00;98310.25;105356;1254;60233;-60
2024/02/12 12:27:14;;;;;;;16.10;12.70;;;;;;;14.49;100.00;98313.95;105026;1257;72855;-61
2024/02/12 12:30:33;;;;;;;19.20;13.30;;;;;;;14.60;100.00;98315.37;105687;1260;70131;-61
2024/02/12 12:33:53;;;;;;;31.80;16.10;;;;;;;14.43;100.00;98316.17;104398;1256;73794;-61
2024/02/12 12:37:15;;;;;;;27.50;16.60;;;;;;;14.47;100.00;98318.70;105927;1256;60655;-59
2024/02/12 12:40:31;;;;;;;20.00;16.90;;;;;;;14.54;100.00;98316.23;105800;1256;60343;-59
2024/02/12 12:43:48;;;;;;;67.50;18.00;;;;;;;14.78;100.00;98312.18;104343;1256;74002;-60
2024/02/12 12:47:07;;;;;;;34.20;17.60;;;;;;;14.84;100.00;98312.96;105134;1254;68647;-60
2024/02/12 12:50:27;;;;;;;32.60;18.10;;;;;;;14.73;100.00;98312.96;105197;1254;71470;-65
2024/02/12 12:53:47;;;;;;;25.50;16.80;;;;;;;14.64;100.00;98314.88;104906;1256;60737;-61
2024/02/12 12:56:48;;;;;;;34.00;16.90;;;;;;;14.72;100.00;98314.96;104787;1257;59869;-63
2024/02/12 12:59:56;;;;;;;20.80;17.50;;;;;;;14.69;100.00;98319.61;105695;1256;73162;-60
2024/02/12 13:03:52;;;;;;;19.60;16.70;;;;;;;14.75;100.00;98320.36;105409;1256;70986;-61
2024/02/12 13:06:30;;;;;;;20.20;16.90;;;;;;;14.85;100.00;98325.41;105840;1257;72566;-62
2024/02/12 13:09:02;;;;;;;31.10;18.10;;;;;;;14.87;100.00;98328.60;104630;1260;63696;-62
2024/02/12 13:12:16;;;;;;;74.70;21.80;;;;;;;14.92;100.00;98331.86;104540;1257;59749;-61
2024/02/12 13:15:35;;;;;;;26.70;19.60;;;;;;;14.87;100.00;98330.82;104514;1254;73670;-62
2024/02/12 13:18:54;;;;;;;30.90;20.30;;;;;;;14.91;100.00;98332.10;105286;1254;71589;-61
2024/02/12 13:22:15;;;;;;;36.10;19.40;;;;;;;14.93;100.00;98320.52;105159;1257;72771;-60
2024/02/12 13:25:31;;;;;;;34.70;20.70;;;;;;;14.92;100.00;98313.88;104534;1272;60102;-60
2024/02/12 13:28:10;;;;;;;68.70;23.60;;;;;;;14.90;100.00;98312.79;104498;1256;60098;-61
2024/02/12 13:31:11;;;;;;;43.20;22.30;;;;;;;14.91;100.00;98313.41;105932;1254;72115;-62
2024/02/12 13:34:28;;;;;;;47.70;21.90;;;;;;;14.88;100.00;98313.86;104332;1270;69329;-60
2024/02/12 13:37:31;;;;;;;76.70;21.70;;;;;;;14.83;100.00;98315.30;105292;1256;72887;-60
2024/02/12 13:40:05;;;;;;;48.40;21.00;;;;;;;14.83;100.00;98315.29;105177;1256;61727;-61
2024/02/12 13:43:18;;;;;;;61.60;22.70;;;;;;;14.79;100.00;98317.70;104768;1260;62596;-62
2024/02/12 13:46:39;;;;;;;34.30;19.40;;;;;;;14.77;100.00;98319.66;105470;1261;75373;-62
2024/02/12 13:49:58;;;;;;;47.10;20.70;;;;;;;14.79;100.00;98320.35;105809;1254;69702;-62
2024/02/12 13:53:17;;;;;;;57.20;21.30;;;;;;;14.82;100.00;98327.73;105657;1257;72453;-61
2024/02/12 13:56:05;;;;;;;50.10;22.90;;;;;;;14.87;100.00;98327.00;105012;1256;60737;-60
2024/02/12 13:59:19;;;;;;;31.10;24.10;;;;;;;14.80;100.00;98327.34;105407;1256;59993;-61
2024/02/12 14:02:38;;;;;;;59.30;24.20;;;;;;;14.83;100.00;98325.92;104914;1254;72295;-65
2024/02/12 14:05:25;;;;;;;33.90;22.90;;;;;;;14.85;100.00;98325.74;104662;1258;70090;-65
2024/02/12 14:08:15;;;;;;;49.30;24.30;;;;;;;14.86;100.00;98325.52;105134;1256;75254;-63
2024/02/12 14:11:15;;;;;;;47.70;24.50;;;;;;;14.85;100.00;98322.73;105058;1256;61111;-61
2024/02/12 14:14:29;;;;;;;65.40;24.70;;;;;;;14.85;100.00;98323.42;105969;1257;62568;-61
2024/02/12 14:17:50;;;;;;;35.40;24.80;;;;;;;14.72;100.00;98324.14;105367;1254;73773;-61
2024/02/12 14:21:08;;;;;;;37.50;23.90;;;;;;;14.74;100.00;98322.40;105141;1256;68913;-59
2024/02/12 14:24:25;;;;;;;56.30;26.50;;;;;;;14.85;100.00;98322.06;104789;1257;72507;-60
2024/02/12 14:27:44;;;;;;;34.30;23.70;;;;;;;14.90;100.00;98326.58;105205;1257;60933;-60
2024/02/12 14:31:03;;;;;;;37.20;24.70;;;;;;;14.85;100.00;98328.55;104549;1256;59905;-61
2024/02/12 14:34:12;;;;;;;35.00;25.00;;;;;;;14.89;100.00;98333.34;105540;1254;74150;-60
2024/02/12 14:37:25;;;;;;;36.20;25.40;;;;;;;15.04;100.00;98335.98;105048;1256;69480;-61
2024/02/12 14:40:44;;;;;;;40.50;23.20;;;;;;;15.17;100.00;98339.13;105900;1256;71750;-59